createdAt,value
2022-08-29T00:01:28.747Z,18.35
2022-08-29T00:03:58.138Z,18.28
2022-08-29T00:06:26.096Z,18.19
2022-08-29T00:08:53.398Z,18.22
2022-08-29T00:11:21.137Z,18.18
2022-08-29T00:13:48.975Z,18.27
2022-08-29T00:16:16.645Z,18.23
2022-08-29T00:18:44.434Z,18.23
2022-08-29T00:21:11.755Z,18.12
2022-08-29T00:23:40.551Z,18.18
2022-08-29T00:26:08.154Z,18.14
2022-08-29T00:28:35.737Z,18.15
2022-08-29T00:31:03.812Z,18.11
2022-08-29T00:33:31.441Z,18.11
2022-08-29T00:35:59.059Z,18.13
2022-08-29T00:38:27.824Z,18.17
2022-08-29T00:40:58.021Z,18.19
2022-08-29T00:43:33.637Z,18.18
2022-08-29T00:46:09.700Z,18.11
2022-08-29T00:48:39.984Z,18.18
2022-08-29T00:51:15.199Z,18.04
2022-08-29T00:53:46.542Z,18.11
2022-08-29T00:56:16.872Z,18.11
2022-08-29T00:59:23.266Z,18.12
2022-08-29T01:01:53.467Z,18.09
2022-08-29T01:04:24.054Z,18.07
2022-08-29T01:06:53.243Z,18.01
2022-08-29T01:09:21.552Z,18.11
2022-08-29T01:12:08.100Z,18.13
2022-08-29T01:14:38.592Z,18.04
2022-08-29T01:17:10.223Z,17.98
2022-08-29T01:19:54.105Z,18.06
2022-08-29T01:22:58.415Z,18.04
2022-08-29T01:25:31.466Z,18.00
2022-08-29T01:28:19.980Z,18.06
2022-08-29T01:31:15.832Z,18.05
2022-08-29T01:34:03.272Z,18.04
2022-08-29T01:36:43.738Z,17.94
2022-08-29T01:39:10.924Z,17.94
2022-08-29T01:41:38.299Z,17.87
2022-08-29T01:44:13.525Z,17.94
2022-08-29T01:46:40.915Z,17.75
2022-08-29T01:49:11.621Z,17.86
2022-08-29T01:51:40.548Z,17.90
2022-08-29T01:54:10.533Z,17.95
2022-08-29T01:56:45.476Z,17.90
2022-08-29T01:59:19.055Z,17.90
2022-08-29T02:02:01.366Z,17.91
2022-08-29T02:04:29.454Z,17.86
2022-08-29T02:06:57.995Z,17.81
2022-08-29T02:09:26.596Z,17.79
2022-08-29T02:11:54.764Z,17.75
2022-08-29T02:14:23.687Z,17.60
2022-08-29T02:16:51.589Z,17.53
2022-08-29T02:19:19.614Z,17.50
2022-08-29T02:21:47.469Z,17.55
2022-08-29T02:24:25.362Z,17.48
2022-08-29T02:26:56.095Z,17.42
2022-08-29T02:29:25.073Z,17.49
2022-08-29T02:31:52.660Z,17.47
2022-08-29T02:34:20.167Z,17.41
2022-08-29T02:36:48.150Z,17.45
2022-08-29T02:39:18.194Z,17.43
2022-08-29T02:41:45.981Z,17.45
2022-08-29T02:44:13.653Z,17.51
2022-08-29T02:46:41.072Z,17.51
2022-08-29T02:49:08.431Z,17.27
2022-08-29T02:51:35.828Z,17.26
2022-08-29T02:54:03.605Z,17.27
2022-08-29T02:56:31.293Z,17.30
2022-08-29T02:58:58.885Z,17.42
2022-08-29T03:01:26.508Z,17.46
2022-08-29T03:03:54.676Z,17.49
2022-08-29T03:06:23.110Z,17.43
2022-08-29T03:08:51.010Z,17.37
2022-08-29T03:11:21.477Z,17.40
2022-08-29T03:13:48.764Z,17.27
2022-08-29T03:16:16.384Z,17.25
2022-08-29T03:18:43.761Z,17.31
2022-08-29T03:21:24.088Z,17.28
2022-08-29T03:23:52.503Z,17.33
2022-08-29T03:26:20.468Z,17.40
2022-08-29T03:28:48.324Z,17.31
2022-08-29T03:31:16.017Z,17.36
2022-08-29T03:33:43.633Z,17.29
2022-08-29T03:36:13.871Z,17.32
2022-08-29T03:38:44.130Z,17.33
2022-08-29T03:41:11.728Z,17.33
2022-08-29T03:43:39.093Z,17.35
2022-08-29T03:46:06.554Z,17.33
2022-08-29T03:48:34.023Z,17.30
2022-08-29T03:51:01.562Z,17.27
2022-08-29T03:53:30.764Z,17.30
2022-08-29T03:55:58.451Z,17.31
2022-08-29T03:58:25.825Z,17.23
2022-08-29T04:00:53.305Z,17.26
2022-08-29T04:03:30.820Z,17.26
2022-08-29T04:06:00.120Z,17.22
2022-08-29T04:08:27.514Z,17.25
2022-08-29T04:10:54.831Z,17.26
2022-08-29T04:13:22.260Z,17.30
2022-08-29T04:15:50.242Z,17.33
2022-08-29T04:18:21.262Z,17.32
2022-08-29T04:20:49.147Z,17.32
2022-08-29T04:23:17.743Z,17.38
2022-08-29T04:25:45.449Z,17.38
2022-08-29T04:28:14.957Z,17.26
2022-08-29T04:30:51.596Z,17.30
2022-08-29T04:33:25.730Z,17.32
2022-08-29T04:35:53.482Z,17.35
2022-08-29T04:38:21.055Z,17.26
2022-08-29T04:40:48.802Z,17.28
2022-08-29T04:43:17.072Z,17.33
2022-08-29T04:45:44.328Z,17.34
2022-08-29T04:48:11.686Z,17.32
2022-08-29T04:50:39.293Z,17.33
2022-08-29T04:53:06.550Z,17.29
2022-08-29T04:55:33.880Z,17.24
2022-08-29T04:58:01.680Z,17.26
2022-08-29T05:00:31.467Z,17.13
2022-08-29T05:02:58.829Z,17.09
2022-08-29T05:05:27.459Z,17.20
2022-08-29T05:07:55.183Z,17.19
2022-08-29T05:10:23.107Z,17.13
2022-08-29T05:12:50.580Z,17.13
2022-08-29T05:15:18.777Z,17.16
2022-08-29T05:17:46.080Z,17.29
2022-08-29T05:20:14.025Z,17.28
2022-08-29T05:22:42.392Z,17.22
2022-08-29T05:25:17.912Z,17.18
2022-08-29T05:27:46.765Z,17.25
2022-08-29T05:30:29.223Z,17.26
2022-08-29T05:33:02.592Z,17.26
2022-08-29T05:35:29.986Z,17.36
2022-08-29T05:37:57.334Z,17.44
2022-08-29T05:40:25.122Z,17.32
2022-08-29T05:42:52.447Z,17.39
2022-08-29T05:45:19.840Z,17.32
2022-08-29T05:47:47.164Z,17.34
2022-08-29T05:50:17.069Z,17.45
2022-08-29T05:52:45.127Z,17.44
2022-08-29T05:55:13.154Z,17.37
2022-08-29T05:57:40.517Z,17.40
2022-08-29T06:00:09.903Z,17.39
2022-08-29T06:02:40.318Z,17.29
2022-08-29T06:05:08.323Z,17.42
2022-08-29T06:07:37.844Z,17.44
2022-08-29T06:10:08.449Z,17.48
2022-08-29T06:12:36.783Z,17.50
2022-08-29T06:15:04.660Z,17.43
2022-08-29T06:17:32.044Z,17.38
2022-08-29T06:19:59.270Z,17.38
2022-08-29T06:22:26.946Z,17.51
2022-08-29T06:24:57.617Z,17.35
2022-08-29T06:27:25.783Z,17.38
2022-08-29T06:29:53.187Z,17.33
2022-08-29T06:32:20.493Z,17.31
2022-08-29T06:34:47.754Z,17.46
2022-08-29T06:37:15.389Z,17.47
2022-08-29T06:39:42.818Z,17.51
2022-08-29T06:42:10.451Z,17.47
2022-08-29T06:44:42.484Z,17.46
2022-08-29T06:47:11.615Z,17.46
2022-08-29T06:49:38.873Z,17.44
2022-08-29T06:52:06.279Z,17.52
2022-08-29T06:54:33.626Z,17.49
2022-08-29T06:57:01.078Z,17.48
2022-08-29T06:59:28.469Z,17.66
2022-08-29T07:01:55.808Z,17.64
2022-08-29T07:04:26.414Z,17.67
2022-08-29T07:06:54.116Z,17.70
2022-08-29T07:09:21.825Z,17.83
2022-08-29T07:11:49.335Z,17.94
2022-08-29T07:14:16.856Z,18.01
2022-08-29T07:16:44.085Z,18.03
2022-08-29T07:19:11.797Z,18.03
2022-08-29T07:21:39.475Z,18.13
2022-08-29T07:24:07.855Z,18.26
2022-08-29T07:26:42.205Z,18.34
2022-08-29T07:29:16.823Z,18.29
2022-08-29T07:31:44.265Z,18.36
2022-08-29T07:34:12.011Z,18.55
2022-08-29T07:36:40.325Z,18.65
2022-08-29T07:39:13.629Z,18.60
2022-08-29T07:41:43.814Z,18.78
2022-08-29T07:44:13.005Z,18.79
2022-08-29T07:46:40.903Z,18.93
2022-08-29T07:49:08.416Z,19.05
2022-08-29T07:51:36.200Z,19.27
2022-08-29T07:54:04.501Z,19.32
2022-08-29T07:56:38.551Z,19.29
2022-08-29T07:59:07.325Z,19.27
2022-08-29T08:01:35.774Z,19.58
2022-08-29T08:04:03.792Z,19.61
2022-08-29T08:06:31.411Z,19.78
2022-08-29T08:09:01.760Z,19.83
2022-08-29T08:11:29.232Z,19.57
2022-08-29T08:13:57.734Z,19.77
2022-08-29T08:16:28.375Z,19.81
2022-08-29T08:18:56.894Z,19.62
2022-08-29T08:21:26.331Z,19.53
2022-08-29T08:23:54.662Z,19.54
2022-08-29T08:26:22.810Z,19.40
2022-08-29T08:28:50.920Z,19.57
2022-08-29T08:31:18.913Z,19.72
2022-08-29T08:33:47.362Z,19.69
2022-08-29T08:36:29.934Z,19.63
2022-08-29T08:39:00.013Z,19.62
2022-08-29T08:41:49.544Z,19.43
2022-08-29T08:44:22.740Z,19.27
2022-08-29T08:46:58.326Z,19.34
2022-08-29T08:49:44.837Z,19.39
2022-08-29T08:52:25.552Z,19.45
2022-08-29T08:55:01.845Z,19.31
2022-08-29T08:57:50.074Z,19.35
2022-08-29T09:00:17.476Z,19.41
2022-08-29T09:03:25.865Z,19.53
2022-08-29T09:06:21.065Z,19.64
2022-08-29T09:09:25.014Z,19.74
2022-08-29T09:12:21.986Z,19.93
2022-08-29T09:15:07.709Z,20.23
2022-08-29T09:18:00.910Z,20.58
2022-08-29T09:20:33.207Z,20.54
2022-08-29T09:23:25.920Z,21.07
2022-08-29T09:25:53.239Z,21.29
2022-08-29T09:28:21.356Z,21.21
2022-08-29T09:31:14.917Z,20.77
2022-08-29T09:33:53.231Z,20.52
2022-08-29T09:36:53.206Z,20.68
2022-08-29T09:39:32.544Z,20.67
2022-08-29T09:42:13.647Z,20.75
2022-08-29T09:44:51.299Z,20.73
2022-08-29T09:47:32.932Z,20.71
2022-08-29T09:50:27.235Z,20.84
2022-08-29T09:53:01.518Z,20.97
2022-08-29T09:55:45.822Z,20.89
2022-08-29T09:58:13.844Z,21.89
2022-08-29T10:00:58.852Z,23.51
2022-08-29T10:03:29.232Z,25.37
2022-08-29T10:06:24.190Z,25.20
2022-08-29T10:09:24.105Z,25.50
2022-08-29T10:12:03.831Z,26.90
2022-08-29T10:14:38.409Z,27.50
2022-08-29T10:17:40.070Z,27.76
2022-08-29T10:20:11.711Z,30.18
2022-08-29T10:22:58.953Z,32.77
2022-08-29T10:25:40.488Z,33.07
2022-08-29T10:28:20.456Z,34.13
2022-08-29T10:30:57.353Z,32.71
2022-08-29T10:33:55.520Z,29.58
2022-08-29T10:36:33.581Z,29.46
2022-08-29T10:39:50.190Z,28.22
2022-08-29T10:42:25.566Z,27.92
2022-08-29T10:45:23.369Z,27.09
2022-08-29T10:48:11.767Z,27.39
2022-08-29T10:51:22.222Z,27.00
2022-08-29T10:54:20.151Z,25.67
2022-08-29T10:56:49.366Z,25.12
2022-08-29T10:59:27.172Z,24.93
2022-08-29T11:02:27.186Z,26.08
2022-08-29T11:04:58.368Z,25.76
2022-08-29T11:07:48.950Z,25.44
2022-08-29T11:10:29.581Z,25.07
2022-08-29T11:13:08.316Z,24.83
2022-08-29T11:15:48.431Z,24.25
2022-08-29T11:18:38.383Z,24.06
2022-08-29T11:21:31.009Z,25.69
2022-08-29T11:23:58.599Z,28.14
2022-08-29T11:26:48.465Z,29.39
2022-08-29T11:29:31.504Z,30.22
2022-08-29T11:32:28.149Z,30.21
2022-08-29T11:35:24.921Z,28.69
2022-08-29T11:38:24.669Z,27.14
2022-08-29T11:41:35.670Z,25.91
2022-08-29T11:44:35.478Z,25.48
2022-08-29T11:47:40.732Z,25.24
2022-08-29T11:50:17.674Z,25.08
2022-08-29T11:53:20.957Z,24.81
2022-08-29T11:56:13.180Z,24.84
2022-08-29T11:58:43.437Z,24.27
2022-08-29T12:01:36.173Z,25.63
2022-08-29T12:04:07.996Z,26.78
2022-08-29T12:06:38.204Z,26.52
2022-08-29T12:09:14.585Z,25.83
2022-08-29T12:12:04.077Z,26.79
2022-08-29T12:14:38.077Z,27.08
2022-08-29T12:17:28.975Z,26.98
2022-08-29T12:20:07.423Z,26.77
2022-08-29T12:22:52.662Z,27.11
2022-08-29T12:25:43.399Z,27.00
2022-08-29T12:28:21.003Z,26.76
2022-08-29T12:31:10.099Z,26.69
2022-08-29T12:34:05.718Z,26.61
2022-08-29T12:36:59.031Z,26.64
2022-08-29T12:40:05.578Z,26.68
2022-08-29T12:43:04.706Z,26.28
2022-08-29T12:45:36.117Z,26.02
2022-08-29T12:48:13.117Z,25.77
2022-08-29T12:50:48.282Z,25.55
2022-08-29T12:53:33.473Z,25.71
2022-08-29T12:56:20.941Z,25.62
2022-08-29T12:58:59.449Z,25.95
2022-08-29T13:01:31.003Z,26.01
2022-08-29T13:04:13.040Z,25.98
2022-08-29T13:06:59.136Z,26.10
2022-08-29T13:09:43.433Z,25.57
2022-08-29T13:12:21.827Z,25.54
2022-08-29T13:15:06.855Z,25.50
2022-08-29T13:17:37.778Z,24.80
2022-08-29T13:20:40.350Z,24.89
2022-08-29T13:23:23.646Z,25.13
2022-08-29T13:26:02.163Z,24.79
2022-08-29T13:28:48.237Z,24.25
2022-08-29T13:31:15.577Z,24.10
2022-08-29T13:33:46.051Z,24.11
2022-08-29T13:36:59.504Z,23.83
2022-08-29T13:39:46.967Z,24.27
2022-08-29T13:42:25.922Z,24.61
2022-08-29T13:45:23.952Z,24.26
2022-08-29T13:48:18.523Z,24.21
2022-08-29T13:53:18.296Z,24.55
2022-08-29T13:55:46.067Z,24.87
2022-08-29T13:58:15.168Z,24.92
2022-08-29T14:00:43.838Z,24.94
2022-08-29T14:03:12.443Z,24.65
2022-08-29T14:05:40.250Z,24.26
2022-08-29T14:08:07.714Z,24.30
2022-08-29T14:10:35.464Z,24.11
2022-08-29T14:13:03.494Z,23.81
2022-08-29T14:15:31.634Z,23.75
2022-08-29T14:17:59.553Z,23.30
2022-08-29T14:20:26.975Z,23.29
2022-08-29T14:22:54.353Z,23.24
2022-08-29T14:25:21.860Z,23.09
2022-08-29T14:27:49.495Z,23.25
2022-08-29T14:30:22.303Z,23.32
2022-08-29T14:32:49.913Z,23.37
2022-08-29T14:35:26.784Z,23.20
2022-08-29T14:38:01.434Z,23.13
2022-08-29T14:40:30.215Z,23.04
2022-08-29T14:42:59.088Z,23.22
2022-08-29T14:45:29.245Z,23.27
2022-08-29T14:47:57.260Z,23.30
2022-08-29T14:50:25.121Z,23.43
2022-08-29T14:52:53.188Z,23.39
2022-08-29T14:55:21.512Z,23.36
2022-08-29T14:57:49.510Z,23.37
2022-08-29T15:00:25.597Z,23.34
2022-08-29T15:02:53.413Z,23.23
2022-08-29T15:05:21.462Z,23.14
2022-08-29T15:07:49.396Z,23.07
2022-08-29T15:10:20.961Z,22.95
2022-08-29T15:12:48.427Z,23.02
2022-08-29T15:15:16.039Z,23.04
2022-08-29T15:17:43.937Z,23.08
2022-08-29T15:23:01.511Z,23.12
2022-08-29T15:25:29.488Z,23.03
2022-08-29T15:27:56.829Z,22.92
2022-08-29T15:30:25.808Z,22.75
2022-08-29T15:32:53.252Z,22.64
2022-08-29T15:35:20.938Z,22.69
2022-08-29T15:37:48.369Z,22.73
2022-08-29T15:40:16.070Z,22.67
2022-08-29T15:42:43.414Z,22.58
2022-08-29T15:45:11.593Z,22.46
2022-08-29T15:47:40.400Z,22.31
2022-08-29T15:50:15.144Z,22.19
2022-08-29T15:52:42.712Z,22.15
2022-08-29T15:55:11.397Z,22.20
2022-08-29T15:57:50.955Z,22.13
2022-08-29T16:00:30.313Z,22.06
2022-08-29T16:03:03.253Z,22.02
2022-08-29T16:05:32.451Z,21.97
2022-08-29T16:08:00.014Z,21.93
2022-08-29T16:10:27.585Z,21.74
2022-08-29T16:12:54.984Z,21.54
2022-08-29T16:15:22.474Z,21.55
2022-08-29T16:17:49.877Z,21.50
2022-08-29T16:20:17.187Z,21.34
2022-08-29T16:22:44.788Z,21.18
2022-08-29T16:25:13.749Z,21.06
2022-08-29T16:27:41.541Z,21.02
2022-08-29T16:30:10.501Z,20.91
2022-08-29T16:32:39.826Z,20.88
2022-08-29T16:35:08.146Z,20.75
2022-08-29T16:37:35.759Z,20.72
2022-08-29T16:40:05.498Z,20.65
2022-08-29T16:42:34.163Z,20.48
2022-08-29T16:45:01.670Z,20.37
2022-08-29T16:47:29.088Z,20.27
2022-08-29T16:49:56.495Z,20.06
2022-08-29T16:52:23.874Z,20.04
2022-08-29T16:54:52.108Z,20.01
2022-08-29T16:57:21.601Z,19.88
2022-08-29T16:59:49.822Z,19.81
2022-08-29T17:02:17.490Z,19.66
2022-08-29T17:04:46.667Z,19.56
2022-08-29T17:07:14.078Z,19.42
2022-08-29T17:09:41.445Z,19.35
2022-08-29T17:12:09.144Z,19.28
2022-08-29T17:14:37.263Z,19.20
2022-08-29T17:17:05.074Z,19.09
2022-08-29T17:19:34.149Z,19.05
2022-08-29T17:22:01.900Z,18.99
2022-08-29T17:24:29.358Z,18.90
2022-08-29T17:26:57.575Z,18.74
2022-08-29T17:29:25.075Z,18.63
2022-08-29T17:31:52.578Z,18.61
2022-08-29T17:34:20.043Z,18.55
2022-08-29T17:36:47.332Z,18.43
2022-08-29T17:39:14.788Z,18.29
2022-08-29T17:41:43.380Z,18.12
2022-08-29T17:44:13.147Z,17.99
2022-08-29T17:46:40.599Z,17.91
2022-08-29T17:49:10.468Z,17.85
2022-08-29T17:51:39.682Z,17.75
2022-08-29T17:54:12.651Z,17.69
2022-08-29T17:56:52.770Z,17.64
2022-08-29T17:59:21.687Z,17.52
2022-08-29T18:01:49.231Z,17.44
2022-08-29T18:04:17.103Z,17.42
2022-08-29T18:06:45.428Z,17.37
2022-08-29T18:09:13.724Z,17.44
2022-08-29T18:11:45.153Z,17.38
2022-08-29T18:14:13.130Z,17.27
2022-08-29T18:16:40.611Z,17.22
2022-08-29T18:19:08.395Z,17.22
2022-08-29T18:21:36.209Z,17.27
2022-08-29T18:24:06.462Z,17.30
2022-08-29T18:26:35.056Z,17.39
2022-08-29T18:29:02.621Z,17.46
2022-08-29T18:31:30.098Z,17.60
2022-08-29T18:34:00.635Z,17.72
2022-08-29T18:36:30.310Z,17.84
2022-08-29T18:38:57.996Z,17.92
2022-08-29T18:41:25.640Z,17.96
2022-08-29T18:43:53.701Z,18.01
2022-08-29T18:46:21.788Z,18.11
2022-08-29T18:48:49.502Z,18.20
2022-08-29T18:51:17.488Z,18.31
2022-08-29T18:53:47.316Z,18.38
2022-08-29T18:56:14.917Z,18.38
2022-08-29T18:58:44.456Z,18.42
2022-08-29T19:01:33.543Z,18.45
2022-08-29T19:04:02.713Z,18.41
2022-08-29T19:06:30.116Z,18.44
2022-08-29T19:08:58.040Z,18.46
2022-08-29T19:11:28.364Z,18.42
2022-08-29T19:13:55.846Z,18.45
2022-08-29T19:16:24.040Z,18.39
2022-08-29T19:18:52.827Z,18.36
2022-08-29T19:21:20.667Z,18.35
2022-08-29T19:23:52.185Z,18.33
2022-08-29T19:26:28.659Z,18.24
2022-08-29T19:29:05.135Z,18.23
2022-08-29T19:31:32.770Z,18.12
2022-08-29T19:34:00.789Z,18.04
2022-08-29T19:36:28.246Z,18.00
2022-08-29T19:38:56.064Z,17.91
2022-08-29T19:41:25.038Z,17.89
2022-08-29T19:43:53.187Z,17.83
2022-08-29T19:46:23.740Z,17.77
2022-08-29T19:48:52.336Z,17.70
2022-08-29T19:51:24.713Z,17.62
2022-08-29T19:53:57.365Z,17.54
2022-08-29T19:56:26.625Z,17.44
2022-08-29T19:58:54.634Z,17.34
2022-08-29T20:01:22.324Z,17.26
2022-08-29T20:03:49.695Z,17.15
2022-08-29T20:06:17.424Z,17.05
2022-08-29T20:08:50.239Z,16.92
2022-08-29T20:11:23.361Z,16.90
2022-08-29T20:13:53.730Z,16.90
2022-08-29T20:16:25.249Z,16.75
2022-08-29T20:18:53.845Z,16.68
2022-08-29T20:21:23.620Z,16.51
2022-08-29T20:23:57.814Z,16.42
2022-08-29T20:26:31.463Z,16.34
2022-08-29T20:29:01.555Z,16.31
2022-08-29T20:31:29.884Z,16.30
2022-08-29T20:33:57.653Z,16.30
2022-08-29T20:36:44.587Z,16.24
2022-08-29T20:39:15.911Z,16.09
2022-08-29T20:41:57.525Z,15.92
2022-08-29T20:44:33.554Z,15.89
2022-08-29T20:47:01.637Z,15.84
2022-08-29T20:49:29.404Z,15.82
2022-08-29T20:51:56.984Z,15.82
2022-08-29T20:54:25.534Z,15.76
2022-08-29T20:56:53.808Z,15.63
2022-08-29T20:59:24.691Z,15.58
2022-08-29T21:01:55.561Z,15.48
2022-08-29T21:04:42.198Z,15.45
2022-08-29T21:07:13.358Z,15.40
2022-08-29T21:09:44.999Z,15.40
2022-08-29T21:12:14.911Z,15.37
2022-08-29T21:14:43.218Z,15.37
2022-08-29T21:17:13.541Z,15.33
2022-08-29T21:19:42.501Z,15.30
2022-08-29T21:22:12.312Z,15.30
2022-08-29T21:24:41.025Z,15.27
2022-08-29T21:27:08.444Z,15.31
2022-08-29T21:29:35.942Z,15.24
2022-08-29T21:32:03.793Z,15.16
2022-08-29T21:34:31.597Z,15.18
2022-08-29T21:36:59.113Z,15.09
2022-08-29T21:39:28.958Z,15.07
2022-08-29T21:42:00.920Z,15.03
2022-08-29T21:44:30.327Z,14.95
2022-08-29T21:46:58.037Z,14.96
2022-08-29T21:49:27.129Z,14.96
2022-08-29T21:51:54.534Z,14.90
2022-08-29T21:54:22.756Z,14.87
2022-08-29T21:56:50.346Z,14.88
2022-08-29T21:59:19.342Z,14.82
2022-08-29T22:01:48.993Z,14.84
2022-08-29T22:04:28.092Z,14.88
2022-08-29T22:06:58.341Z,14.90
2022-08-29T22:09:28.311Z,14.85
2022-08-29T22:11:56.356Z,14.77
2022-08-29T22:14:44.599Z,14.80
2022-08-29T22:17:11.978Z,14.80
2022-08-29T22:19:39.651Z,14.77
2022-08-29T22:22:08.693Z,14.76
2022-08-29T22:24:37.594Z,14.75
2022-08-29T22:27:05.052Z,14.66
2022-08-29T22:29:33.433Z,14.59
2022-08-29T22:32:00.822Z,14.51
2022-08-29T22:34:28.171Z,14.48
2022-08-29T22:36:56.296Z,14.48
2022-08-29T22:39:23.673Z,14.49
2022-08-29T22:41:51.356Z,14.47
2022-08-29T22:47:06.963Z,14.47
2022-08-29T22:49:34.190Z,14.40
2022-08-29T22:52:02.264Z,14.34
2022-08-29T22:54:35.577Z,14.39
2022-08-29T22:57:10.971Z,14.35
2022-08-29T22:59:40.195Z,14.36
2022-08-29T23:02:09.455Z,14.39
2022-08-29T23:04:38.582Z,14.34
2022-08-29T23:07:07.508Z,14.30
2022-08-29T23:09:35.795Z,14.30
2022-08-29T23:12:08.127Z,14.17
2022-08-29T23:14:37.797Z,14.13
2022-08-29T23:17:08.291Z,14.12
2022-08-29T23:19:37.449Z,14.14
2022-08-29T23:22:10.102Z,14.18
2022-08-29T23:24:39.357Z,14.14
2022-08-29T23:27:08.901Z,14.07
2022-08-29T23:29:41.912Z,14.00
2022-08-29T23:32:09.489Z,13.96
2022-08-29T23:34:36.753Z,13.99
2022-08-29T23:37:04.106Z,14.00
2022-08-29T23:39:31.567Z,13.93
2022-08-29T23:41:59.628Z,13.88
2022-08-29T23:44:27.112Z,13.87
2022-08-29T23:46:58.121Z,13.85
2022-08-29T23:49:25.586Z,13.83
2022-08-29T23:51:53.098Z,13.87
2022-08-29T23:54:20.491Z,13.93
2022-08-29T23:56:47.815Z,13.86
2022-08-29T23:59:35.001Z,13.85
